Time;durP1;ratioP1;P1;durP2;ratioP2;P2;SDS_P1;SDS_P2;PMS_P1;PMS_P2;Temp;Humidity;BMP_temperature;BMP_pressure;BME280_temperature;BME280_humidity;BME280_pressure;Samples;Min_cycle;Max_cycle;Signal;HPM_P1;HPM_P2
2023/10/24 00:00:22;;;;;;;2.43;1.27;;;;;;;;;;5074875;28;20232;-67
2023/10/24 00:02:50;;;;;;;1.50;1.00;;;;;;;;;;5073383;28;20209;-67
2023/10/24 00:05:18;;;;;;;2.93;1.83;;;;;;;;;;5075657;28;20317;-67
2023/10/24 00:07:46;;;;;;;2.17;1.47;;;;;;;;;;5075462;28;20225;-68
2023/10/24 00:10:14;;;;;;;1.73;1.30;;;;;;;;;;5083543;28;20226;-68
2023/10/24 00:12:42;;;;;;;3.43;1.60;;;;;;;;;;5072652;28;20207;-68
2023/10/24 00:15:12;;;;;;;4.63;1.30;;;;;;;;;;5075991;28;20293;-69
2023/10/24 00:17:41;;;;;;;4.60;1.80;;;;;;;;;;5079044;28;20210;-69
2023/10/24 00:20:09;;;;;;;5.17;1.93;;;;;;;;;;5079194;28;20226;-70
2023/10/24 00:22:37;;;;;;;6.87;1.77;;;;;;;;;;5079026;28;20236;-71
2023/10/24 00:25:06;;;;;;;3.90;1.80;;;;;;;;;;5079724;28;20234;-69
2023/10/24 00:27:34;;;;;;;3.03;1.43;;;;;;;;;;5088815;28;20240;-71
2023/10/24 00:30:02;;;;;;;3.33;1.60;;;;;;;;;;5078923;28;20323;-70
2023/10/24 00:32:32;;;;;;;5.70;1.40;;;;;;;;;;5077922;28;20211;-71
2023/10/24 00:35:00;;;;;;;4.17;1.70;;;;;;;;;;5078779;28;20209;-70
2023/10/24 00:37:28;;;;;;;2.33;1.40;;;;;;;;;;5077717;28;20202;-70
2023/10/24 00:39:56;;;;;;;5.03;1.43;;;;;;;;;;5065388;28;20201;-70
2023/10/24 00:42:24;;;;;;;5.03;1.90;;;;;;;;;;5077704;28;20270;-70
2023/10/24 00:44:52;;;;;;;2.70;1.20;;;;;;;;;;5077443;28;20218;-72
2023/10/24 00:47:20;;;;;;;3.83;1.40;;;;;;;;;;5075710;28;20289;-71
2023/10/24 00:49:49;;;;;;;2.50;1.40;;;;;;;;;;5078474;28;20206;-70
2023/10/24 00:52:17;;;;;;;0.77;0.77;;;;;;;;;;5069122;28;20234;-69
2023/10/24 00:54:46;;;;;;;3.20;1.53;;;;;;;;;;5078534;28;20232;-70
2023/10/24 00:57:14;;;;;;;3.70;1.17;;;;;;;;;;5077734;28;20206;-70
2023/10/24 00:59:43;;;;;;;2.07;1.30;;;;;;;;;;5078472;28;20274;-69
2023/10/24 01:02:11;;;;;;;2.53;1.80;;;;;;;;;;5072808;28;20203;-69
2023/10/24 01:04:40;;;;;;;2.97;1.63;;;;;;;;;;5068338;28;20221;-69
2023/10/24 01:07:09;;;;;;;2.63;1.50;;;;;;;;;;5074743;28;20206;-70
2023/10/24 01:09:37;;;;;;;4.13;1.60;;;;;;;;;;5077413;28;20209;-69
2023/10/24 01:12:06;;;;;;;5.03;1.50;;;;;;;;;;5077199;28;20222;-69
2023/10/24 01:14:34;;;;;;;2.80;1.43;;;;;;;;;;5077166;28;20202;-69
2023/10/24 01:17:09;;;;;;;2.87;1.87;;;;;;;;;;5071209;28;20658;-70
2023/10/24 01:19:37;;;;;;;3.20;1.37;;;;;;;;;;5073078;28;20245;-70
2023/10/24 01:22:07;;;;;;;2.37;1.70;;;;;;;;;;5076235;28;20819;-69
2023/10/24 01:24:36;;;;;;;5.00;1.60;;;;;;;;;;5077832;28;20286;-70
2023/10/24 01:27:04;;;;;;;3.93;1.83;;;;;;;;;;5077147;28;20630;-70
2023/10/24 01:29:32;;;;;;;4.63;2.00;;;;;;;;;;5075777;28;20203;-69
2023/10/24 01:32:00;;;;;;;3.63;1.60;;;;;;;;;;5070867;28;20305;-69
2023/10/24 01:34:28;;;;;;;2.30;1.70;;;;;;;;;;5064404;28;20214;-69
2023/10/24 01:36:56;;;;;;;3.70;2.50;;;;;;;;;;5076793;28;20225;-69
2023/10/24 01:39:25;;;;;;;4.47;1.90;;;;;;;;;;5076767;28;20284;-68
2023/10/24 01:41:53;;;;;;;3.27;1.80;;;;;;;;;;5076742;28;20226;-70
2023/10/24 01:44:21;;;;;;;6.17;2.23;;;;;;;;;;5077598;28;20217;-68
2023/10/24 01:46:50;;;;;;;4.60;1.87;;;;;;;;;;5076596;28;20757;-69
2023/10/24 01:49:18;;;;;;;3.47;1.80;;;;;;;;;;5067334;28;20263;-68
2023/10/24 01:51:45;;;;;;;3.37;1.50;;;;;;;;;;5068609;28;20296;-68
2023/10/24 01:54:13;;;;;;;3.13;1.57;;;;;;;;;;5076098;28;20300;-68
2023/10/24 01:56:43;;;;;;;3.60;1.60;;;;;;;;;;5076957;28;20262;-68
2023/10/24 01:59:11;;;;;;;3.80;1.80;;;;;;;;;;5065947;28;20237;-68
2023/10/24 02:01:39;;;;;;;3.10;1.93;;;;;;;;;;5069663;28;20566;-68
2023/10/24 02:04:07;;;;;;;5.60;2.10;;;;;;;;;;5072111;28;20250;-68
2023/10/24 02:06:39;;;;;;;2.60;1.77;;;;;;;;;;5074345;28;20223;-68
2023/10/24 02:09:07;;;;;;;2.60;1.70;;;;;;;;;;5073592;28;20203;-69
2023/10/24 02:11:35;;;;;;;2.97;1.60;;;;;;;;;;5073446;28;20236;-69
2023/10/24 02:14:04;;;;;;;1.97;1.67;;;;;;;;;;5077699;28;20202;-68
2023/10/24 02:16:32;;;;;;;2.13;1.57;;;;;;;;;;5097517;28;20237;-68
2023/10/24 02:19:00;;;;;;;3.20;1.67;;;;;;;;;;5097307;28;20228;-68
2023/10/24 02:21:28;;;;;;;2.40;1.73;;;;;;;;;;5091033;28;20214;-68
2023/10/24 02:23:56;;;;;;;5.63;2.20;;;;;;;;;;5097637;28;20207;-68
2023/10/24 02:26:24;;;;;;;3.60;1.50;;;;;;;;;;5071348;28;20226;-67
2023/10/24 02:28:52;;;;;;;5.87;2.10;;;;;;;;;;5076311;28;20209;-66
2023/10/24 02:31:21;;;;;;;2.50;1.90;;;;;;;;;;5071059;28;20223;-67
2023/10/24 02:33:50;;;;;;;2.87;2.20;;;;;;;;;;5058145;28;20203;-66
2023/10/24 02:36:18;;;;;;;3.50;2.13;;;;;;;;;;5074762;28;20273;-66
2023/10/24 02:38:45;;;;;;;4.77;2.27;;;;;;;;;;5077058;28;20289;-67
2023/10/24 02:41:13;;;;;;;1.90;1.80;;;;;;;;;;5076093;28;20214;-66
2023/10/24 02:43:41;;;;;;;3.80;2.20;;;;;;;;;;5076462;28;20266;-66
2023/10/24 02:46:09;;;;;;;2.63;2.00;;;;;;;;;;5076129;28;20218;-64
2023/10/24 02:48:39;;;;;;;2.77;1.67;;;;;;;;;;5066895;28;20234;-66
2023/10/24 02:51:07;;;;;;;4.47;2.03;;;;;;;;;;5074781;28;20678;-66
2023/10/24 02:53:35;;;;;;;3.20;2.20;;;;;;;;;;5079745;28;20205;-63
2023/10/24 02:56:03;;;;;;;2.97;1.83;;;;;;;;;;5080009;28;20262;-65
2023/10/24 02:58:31;;;;;;;5.20;2.50;;;;;;;;;;5080830;28;20206;-64
2023/10/24 03:01:03;;;;;;;2.03;1.83;;;;;;;;;;5078426;28;20256;-64
2023/10/24 03:03:32;;;;;;;3.83;2.00;;;;;;;;;;5068060;28;20240;-64
2023/10/24 03:06:01;;;;;;;3.83;2.27;;;;;;;;;;5079555;28;20637;-63
2023/10/24 03:08:29;;;;;;;3.73;2.20;;;;;;;;;;5077595;28;20285;-64
2023/10/24 03:10:57;;;;;;;2.83;2.17;;;;;;;;;;5074814;28;20250;-63
2023/10/24 03:13:25;;;;;;;3.00;2.10;;;;;;;;;;5071696;28;20206;-63
2023/10/24 03:15:53;;;;;;;3.50;2.00;;;;;;;;;;5077436;28;20210;-64
2023/10/24 03:18:21;;;;;;;2.27;2.07;;;;;;;;;;5077388;28;20562;-64
2023/10/24 03:20:48;;;;;;;2.77;2.20;;;;;;;;;;5059619;28;20235;-64
2023/10/24 03:23:18;;;;;;;2.07;1.63;;;;;;;;;;5076824;28;20202;-64
2023/10/24 03:25:46;;;;;;;2.97;1.90;;;;;;;;;;5078945;28;20315;-64
2023/10/24 03:28:14;;;;;;;3.77;1.87;;;;;;;;;;5080147;28;20211;-64
2023/10/24 03:30:43;;;;;;;2.00;1.80;;;;;;;;;;5078450;28;20237;-64
2023/10/24 03:33:11;;;;;;;2.07;1.53;;;;;;;;;;5067842;28;20213;-64
2023/10/24 03:35:39;;;;;;;2.33;2.13;;;;;;;;;;5078909;28;20568;-64
2023/10/24 03:38:07;;;;;;;2.13;1.50;;;;;;;;;;5078697;28;20562;-64
2023/10/24 03:40:38;;;;;;;2.87;2.00;;;;;;;;;;5070404;28;20219;-64
2023/10/24 03:43:07;;;;;;;17.47;15.43;;;;;;;;;;5078123;28;20198;-64
2023/10/24 03:45:37;;;;;;;5.17;3.80;;;;;;;;;;5079059;28;20224;-64
2023/10/24 03:48:05;;;;;;;2.70;2.10;;;;;;;;;;5068567;28;20270;-64
2023/10/24 03:50:36;;;;;;;2.73;1.73;;;;;;;;;;5068793;28;20305;-64
2023/10/24 03:53:04;;;;;;;1.40;1.30;;;;;;;;;;5059601;28;20258;-64
2023/10/24 03:55:32;;;;;;;3.50;1.80;;;;;;;;;;5075619;28;20202;-64
2023/10/24 03:58:02;;;;;;;1.90;1.50;;;;;;;;;;5072885;28;20201;-64
2023/10/24 04:00:30;;;;;;;2.53;1.80;;;;;;;;;;5074699;28;20305;-63
2023/10/24 04:02:58;;;;;;;3.97;1.70;;;;;;;;;;5078492;28;20210;-64
2023/10/24 04:05:31;;;;;;;2.50;1.87;;;;;;;;;;5075226;28;20199;-64
2023/10/24 04:08:00;;;;;;;3.10;1.90;;;;;;;;;;5072576;28;20804;-64
2023/10/24 04:10:28;;;;;;;2.17;1.70;;;;;;;;;;5075608;28;20716;-64
2023/10/24 04:12:56;;;;;;;2.70;1.87;;;;;;;;;;5097386;28;20212;-64
2023/10/24 04:15:27;;;;;;;3.23;1.97;;;;;;;;;;5079388;28;20214;-64
2023/10/24 04:17:55;;;;;;;2.53;2.00;;;;;;;;;;5078907;28;20634;-64
2023/10/24 04:20:23;;;;;;;2.70;2.10;;;;;;;;;;5079217;28;20229;-64
2023/10/24 04:22:52;;;;;;;4.87;2.30;;;;;;;;;;5079202;28;20274;-64
2023/10/24 04:25:20;;;;;;;2.30;1.83;;;;;;;;;;5076006;28;20205;-64
2023/10/24 04:27:48;;;;;;;3.63;2.13;;;;;;;;;;5078830;28;20685;-64
2023/10/24 04:30:16;;;;;;;4.07;2.30;;;;;;;;;;5076147;28;20233;-64
2023/10/24 04:32:45;;;;;;;2.30;1.57;;;;;;;;;;5066704;28;20203;-64
2023/10/24 04:35:14;;;;;;;1.27;1.10;;;;;;;;;;5078716;28;20209;-64
2023/10/24 04:37:42;;;;;;;2.03;1.17;;;;;;;;;;5076173;28;20206;-64
2023/10/24 04:40:11;;;;;;;1.00;0.90;;;;;;;;;;5077901;28;20224;-64
2023/10/24 04:42:39;;;;;;;0.77;0.77;;;;;;;;;;5063561;28;20288;-64
2023/10/24 04:45:07;;;;;;;1.03;0.73;;;;;;;;;;5070080;28;20213;-64
2023/10/24 04:47:35;;;;;;;0.70;0.70;;;;;;;;;;5077049;28;20221;-64
2023/10/24 04:50:06;;;;;;;3.83;1.07;;;;;;;;;;5076938;28;20392;-64
2023/10/24 04:52:34;;;;;;;1.30;1.00;;;;;;;;;;5076960;28;20226;-64
2023/10/24 04:55:17;;;;;;;2.07;1.30;;;;;;;;;;5043951;28;20671;-64
2023/10/24 04:57:45;;;;;;;1.17;1.00;;;;;;;;;;5071129;28;20204;-64
2023/10/24 05:00:13;;;;;;;0.80;0.80;;;;;;;;;;5077916;28;20309;-64
2023/10/24 05:02:42;;;;;;;1.00;0.77;;;;;;;;;;5068084;28;20202;-64
2023/10/24 05:05:12;;;;;;;2.10;1.90;;;;;;;;;;5075435;28;20342;-63
2023/10/24 05:07:40;;;;;;;1.30;1.20;;;;;;;;;;5076659;28;20221;-64
2023/10/24 05:10:08;;;;;;;2.93;1.10;;;;;;;;;;5077824;28;20226;-64
2023/10/24 05:12:36;;;;;;;3.97;1.20;;;;;;;;;;5070075;28;20293;-64
2023/10/24 05:15:04;;;;;;;1.03;0.90;;;;;;;;;;5078217;28;20209;-63
2023/10/24 05:17:32;;;;;;;2.43;1.20;;;;;;;;;;5072071;28;20196;-64
2023/10/24 05:20:02;;;;;;;1.27;0.90;;;;;;;;;;5077757;28;20254;-63
2023/10/24 05:22:32;;;;;;;1.23;0.90;;;;;;;;;;5063071;28;20200;-64
2023/10/24 05:25:00;;;;;;;2.00;0.90;;;;;;;;;;5067394;28;20211;-64
2023/10/24 05:27:28;;;;;;;2.30;0.83;;;;;;;;;;5076462;28;20225;-64
2023/10/24 05:29:56;;;;;;;0.90;0.90;;;;;;;;;;5074283;28;20201;-64
2023/10/24 05:32:24;;;;;;;3.63;1.03;;;;;;;;;;5059349;28;20196;-64
2023/10/24 05:34:52;;;;;;;3.57;3.00;;;;;;;;;;5064316;28;20202;-64
2023/10/24 05:37:20;;;;;;;7.03;5.33;;;;;;;;;;5063197;28;20199;-64
2023/10/24 05:39:50;;;;;;;6.40;6.00;;;;;;;;;;5067357;28;20696;-64
2023/10/24 05:42:18;;;;;;;8.43;7.10;;;;;;;;;;5066527;28;20241;-64
2023/10/24 05:44:46;;;;;;;5.47;4.53;;;;;;;;;;5074827;28;20213;-64
2023/10/24 05:47:14;;;;;;;6.33;4.50;;;;;;;;;;5092027;28;20218;-64
2023/10/24 05:49:42;;;;;;;5.00;4.60;;;;;;;;;;5076341;28;20212;-64
2023/10/24 05:52:10;;;;;;;5.67;5.27;;;;;;;;;;5066376;28;20730;-64
2023/10/24 05:54:38;;;;;;;2.83;1.90;;;;;;;;;;5067344;28;20201;-65
2023/10/24 05:57:08;;;;;;;1.40;1.30;;;;;;;;;;5076281;28;20667;-64
2023/10/24 05:59:36;;;;;;;1.87;1.50;;;;;;;;;;5077055;28;20638;-64
2023/10/24 06:02:04;;;;;;;1.87;1.50;;;;;;;;;;5085546;28;20253;-64
2023/10/24 06:04:34;;;;;;;3.10;2.90;;;;;;;;;;5097407;28;20212;-64
2023/10/24 06:07:07;;;;;;;1.40;0.90;;;;;;;;;;5084461;28;20220;-64
2023/10/24 06:09:35;;;;;;;1.00;1.00;;;;;;;;;;5077476;28;20206;-64
2023/10/24 06:12:03;;;;;;;2.70;1.23;;;;;;;;;;5077552;28;20262;-64
2023/10/24 06:14:33;;;;;;;1.30;1.20;;;;;;;;;;5077595;28;20234;-64
2023/10/24 06:17:01;;;;;;;1.00;1.00;;;;;;;;;;5076711;28;20244;-64
2023/10/24 06:19:30;;;;;;;3.77;2.73;;;;;;;;;;5077388;28;20266;-64
2023/10/24 06:21:58;;;;;;;1.00;1.00;;;;;;;;;;5077036;28;20229;-64
2023/10/24 06:24:25;;;;;;;1.27;1.03;;;;;;;;;;5076540;28;20233;-64
2023/10/24 06:26:53;;;;;;;0.80;0.80;;;;;;;;;;5081184;28;20214;-64
2023/10/24 06:29:21;;;;;;;1.37;0.97;;;;;;;;;;5080923;28;20603;-64
2023/10/24 06:31:51;;;;;;;7.87;1.70;;;;;;;;;;5081223;28;20236;-64
2023/10/24 06:34:19;;;;;;;4.17;2.97;;;;;;;;;;5066414;28;20256;-64
2023/10/24 06:36:47;;;;;;;3.63;3.33;;;;;;;;;;5063835;28;20211;-65
2023/10/24 06:39:15;;;;;;;3.73;2.70;;;;;;;;;;5067584;28;20205;-64
2023/10/24 06:41:45;;;;;;;4.10;1.50;;;;;;;;;;5068437;28;20749;-64
2023/10/24 06:44:13;;;;;;;2.33;1.83;;;;;;;;;;5054710;28;20222;-64
2023/10/24 06:46:40;;;;;;;2.63;1.87;;;;;;;;;;5058224;28;20210;-65
2023/10/24 06:49:10;;;;;;;1.43;1.33;;;;;;;;;;5060757;28;20223;-65
2023/10/24 06:51:38;;;;;;;2.67;1.93;;;;;;;;;;5064353;28;20294;-64
2023/10/24 06:54:06;;;;;;;3.53;2.40;;;;;;;;;;5067577;28;20202;-64
2023/10/24 06:56:34;;;;;;;1.87;1.10;;;;;;;;;;5074039;28;20217;-63
2023/10/24 06:59:02;;;;;;;2.87;1.40;;;;;;;;;;5074625;28;20230;-65
2023/10/24 07:01:30;;;;;;;1.90;1.17;;;;;;;;;;5080438;28;20230;-66
2023/10/24 07:04:01;;;;;;;1.03;1.03;;;;;;;;;;5079851;28;20328;-65
2023/10/24 07:09:56;;;;;;;2.33;1.40;;;;;;;;;;5072256;28;20666;-65
2023/10/24 07:12:24;;;;;;;2.60;1.80;;;;;;;;;;5077616;28;20665;-66
2023/10/24 07:14:53;;;;;;;1.70;1.60;;;;;;;;;;5088893;28;20215;-66
2023/10/24 07:17:21;;;;;;;4.67;3.13;;;;;;;;;;5072252;28;20202;-66
2023/10/24 07:28:46;;;;;;;4.50;2.60;;;;;;;;;;5324269;23;20248;-72
2023/10/24 07:31:14;;;;;;;3.03;2.30;;;;;;;;;;4997765;28;20232;-69
2023/10/24 07:33:46;;;;;;;3.10;2.00;;;;;;;;;;5000561;28;20205;-70
2023/10/24 07:36:14;;;;;;;4.03;1.90;;;;;;;;;;4991219;28;20237;-71
2023/10/24 07:38:42;;;;;;;3.90;3.23;;;;;;;;;;4989557;28;20719;-67
2023/10/24 07:41:11;;;;;;;4.93;3.17;;;;;;;;;;4980131;28;20233;-71
2023/10/24 07:43:39;;;;;;;2.50;2.30;;;;;;;;;;4980567;28;20268;-71
2023/10/24 07:46:08;;;;;;;2.70;2.30;;;;;;;;;;4984628;28;20213;-70
2023/10/24 07:48:36;;;;;;;4.40;2.27;;;;;;;;;;4985536;28;20233;-70
2023/10/24 07:51:04;;;;;;;3.70;2.67;;;;;;;;;;4976068;28;20201;-70
2023/10/24 07:53:37;;;;;;;1.93;1.80;;;;;;;;;;4979846;28;20306;-71
2023/10/24 07:56:06;;;;;;;5.90;2.47;;;;;;;;;;4980312;28;20213;-70
2023/10/24 07:58:34;;;;;;;3.70;2.00;;;;;;;;;;4980102;28;20233;-69
2023/10/24 08:01:03;;;;;;;4.63;1.90;;;;;;;;;;4980706;28;20209;-70
2023/10/24 08:03:33;;;;;;;2.20;2.00;;;;;;;;;;4986113;28;20205;-70
2023/10/24 08:06:01;;;;;;;3.70;2.00;;;;;;;;;;4979679;28;20214;-68
2023/10/24 08:08:29;;;;;;;2.20;2.00;;;;;;;;;;4981117;28;20234;-68
2023/10/24 08:10:57;;;;;;;1.87;1.77;;;;;;;;;;4979640;28;20634;-70
2023/10/24 08:13:25;;;;;;;4.20;1.77;;;;;;;;;;4982440;28;20259;-72
2023/10/24 08:15:53;;;;;;;2.10;1.83;;;;;;;;;;4973499;28;20214;-72
2023/10/24 08:18:22;;;;;;;3.57;1.93;;;;;;;;;;4960944;28;20224;-72
2023/10/24 08:20:51;;;;;;;3.93;2.00;;;;;;;;;;4966245;28;20285;-72
2023/10/24 08:23:19;;;;;;;2.37;2.17;;;;;;;;;;4979075;28;20726;-72
2023/10/24 08:25:47;;;;;;;2.57;2.20;;;;;;;;;;4979968;28;20264;-72
2023/10/24 08:28:15;;;;;;;5.47;3.20;;;;;;;;;;4979312;28;20229;-72
2023/10/24 08:30:43;;;;;;;4.20;3.57;;;;;;;;;;4977169;28;20746;-72
2023/10/24 08:33:11;;;;;;;6.80;3.50;;;;;;;;;;4979411;28;20213;-73
2023/10/24 08:35:40;;;;;;;7.67;3.50;;;;;;;;;;4967686;28;20607;-72
2023/10/24 08:38:09;;;;;;;4.70;3.73;;;;;;;;;;4983713;28;20285;-72
2023/10/24 08:40:37;;;;;;;4.73;3.10;;;;;;;;;;4978944;28;20210;-72
2023/10/24 08:43:05;;;;;;;5.53;3.90;;;;;;;;;;4979529;28;20210;-72
2023/10/24 08:45:33;;;;;;;9.40;3.63;;;;;;;;;;4979495;28;20212;-76
2023/10/24 08:48:01;;;;;;;4.50;3.37;;;;;;;;;;4979150;28;20241;-76
2023/10/24 08:50:30;;;;;;;5.47;2.97;;;;;;;;;;4976233;28;20316;-67
2023/10/24 08:52:58;;;;;;;6.20;2.53;;;;;;;;;;4970112;28;20213;-68
2023/10/24 08:55:28;;;;;;;4.47;2.60;;;;;;;;;;4976376;28;20671;-65
2023/10/24 08:57:58;;;;;;;6.80;2.50;;;;;;;;;;4978444;28;20254;-65
2023/10/24 09:00:28;;;;;;;5.43;2.40;;;;;;;;;;4978946;28;20669;-64
2023/10/24 09:03:00;;;;;;;4.20;2.90;;;;;;;;;;4979728;28;20205;-64
2023/10/24 09:05:28;;;;;;;3.83;2.40;;;;;;;;;;4975210;28;20210;-64
2023/10/24 09:07:57;;;;;;;3.57;2.33;;;;;;;;;;4965687;28;20252;-64
2023/10/24 09:10:25;;;;;;;4.07;2.37;;;;;;;;;;4979277;28;20237;-65
2023/10/24 09:13:00;;;;;;;9.40;2.73;;;;;;;;;;4972091;28;20209;-65
2023/10/24 09:15:30;;;;;;;4.90;2.37;;;;;;;;;;4975996;28;20213;-64
2023/10/24 09:21:20;;;;;;;3.70;2.40;;;;;;;;;;4973229;28;20206;-65
2023/10/24 09:23:49;;;;;;;3.47;1.97;;;;;;;;;;4979037;28;20252;-65
2023/10/24 09:26:17;;;;;;;5.40;2.30;;;;;;;;;;4978562;28;20201;-65
2023/10/24 09:28:55;;;;;;;8.93;2.30;;;;;;;;;;4982803;28;20257;-64
2023/10/24 09:31:24;;;;;;;3.57;2.30;;;;;;;;;;4980753;28;20283;-65
2023/10/24 09:33:52;;;;;;;5.13;2.30;;;;;;;;;;4979110;28;20211;-64
2023/10/24 09:36:25;;;;;;;4.63;2.70;;;;;;;;;;4978912;28;21047;-64
2023/10/24 09:38:54;;;;;;;4.07;2.40;;;;;;;;;;4984271;28;20276;-66
2023/10/24 09:41:22;;;;;;;3.00;2.20;;;;;;;;;;4979103;28;20302;-66
2023/10/24 09:43:56;;;;;;;5.13;2.70;;;;;;;;;;4978738;28;20245;-66
2023/10/24 09:46:25;;;;;;;5.30;3.00;;;;;;;;;;4978935;28;20205;-66
2023/10/24 09:48:55;;;;;;;6.87;2.87;;;;;;;;;;4981288;28;20226;-66
2023/10/24 09:51:23;;;;;;;5.47;3.57;;;;;;;;;;4977129;28;20216;-66
2023/10/24 09:53:51;;;;;;;6.53;3.40;;;;;;;;;;4978587;28;20246;-68
2023/10/24 09:56:21;;;;;;;4.87;3.33;;;;;;;;;;4975511;28;20205;-67
2023/10/24 09:58:49;;;;;;;5.00;3.10;;;;;;;;;;4980594;28;20245;-66
2023/10/24 10:01:18;;;;;;;6.33;3.50;;;;;;;;;;4985224;28;20691;-64
2023/10/24 10:03:55;;;;;;;4.43;3.87;;;;;;;;;;4985247;28;20216;-68
2023/10/24 10:06:26;;;;;;;5.17;2.90;;;;;;;;;;4984270;28;20236;-67
2023/10/24 10:09:15;;;;;;;7.23;3.43;;;;;;;;;;4984981;28;20244;-66
2023/10/24 10:11:44;;;;;;;4.57;3.00;;;;;;;;;;4985185;28;20266;-67
2023/10/24 10:14:18;;;;;;;5.30;3.23;;;;;;;;;;4985073;28;20237;-66
2023/10/24 10:16:52;;;;;;;5.60;3.30;;;;;;;;;;4984951;28;20208;-66
2023/10/24 10:19:27;;;;;;;6.77;3.20;;;;;;;;;;4984998;28;20313;-66
2023/10/24 10:22:07;;;;;;;5.57;3.40;;;;;;;;;;4974760;28;20626;-66
2023/10/24 10:24:50;;;;;;;5.57;2.87;;;;;;;;;;4978611;28;20298;-66
2023/10/24 10:27:26;;;;;;;5.17;2.90;;;;;;;;;;4982606;28;20205;-66
2023/10/24 10:29:57;;;;;;;4.57;2.57;;;;;;;;;;4984145;28;20272;-66
2023/10/24 10:32:50;;;;;;;4.87;2.77;;;;;;;;;;4984567;28;20219;-66
2023/10/24 10:35:49;;;;;;;7.23;3.37;;;;;;;;;;4975558;28;20268;-67
2023/10/24 10:38:37;;;;;;;5.03;2.90;;;;;;;;;;4990421;28;20224;-67
2023/10/24 10:41:28;;;;;;;3.73;3.10;;;;;;;;;;4980857;28;20213;-66
2023/10/24 10:44:33;;;;;;;8.50;3.33;;;;;;;;;;4979774;28;20209;-65
2023/10/24 10:47:07;;;;;;;5.10;2.63;;;;;;;;;;4984607;28;20205;-66
2023/10/24 10:49:42;;;;;;;7.43;3.10;;;;;;;;;;4984362;28;20243;-65
2023/10/24 10:52:18;;;;;;;6.07;2.47;;;;;;;;;;4984254;28;20213;-65
2023/10/24 10:54:52;;;;;;;5.03;2.40;;;;;;;;;;4984739;28;20249;-66
2023/10/24 10:57:24;;;;;;;7.17;3.43;;;;;;;;;;4973921;28;20241;-65
2023/10/24 11:00:04;;;;;;;6.10;3.40;;;;;;;;;;4982459;28;20233;-65
2023/10/24 11:02:39;;;;;;;4.63;2.83;;;;;;;;;;4982818;28;20213;-65
2023/10/24 11:05:23;;;;;;;4.60;2.67;;;;;;;;;;4983235;28;20343;-65
2023/10/24 11:07:54;;;;;;;7.03;2.90;;;;;;;;;;4979762;28;20257;-65
2023/10/24 11:10:22;;;;;;;3.03;2.13;;;;;;;;;;4981076;28;20249;-65
2023/10/24 11:12:50;;;;;;;2.23;2.03;;;;;;;;;;4975773;28;20206;-65
2023/10/24 11:15:26;;;;;;;1.90;1.47;;;;;;;;;;4980328;28;20245;-65
2023/10/24 11:17:54;;;;;;;2.67;1.70;;;;;;;;;;4980354;28;20225;-64
2023/10/24 11:20:23;;;;;;;2.23;0.90;;;;;;;;;;4978663;28;20245;-66
2023/10/24 11:22:53;;;;;;;1.60;1.50;;;;;;;;;;4979431;28;20257;-64
2023/10/24 11:25:21;;;;;;;1.27;1.00;;;;;;;;;;4980354;28;20208;-64
2023/10/24 11:27:50;;;;;;;1.53;0.90;;;;;;;;;;4983066;28;20585;-64
2023/10/24 11:30:19;;;;;;;4.30;1.70;;;;;;;;;;4978270;28;20649;-64
2023/10/24 11:32:47;;;;;;;0.80;0.80;;;;;;;;;;4979493;28;20608;-63
2023/10/24 11:35:15;;;;;;;0.77;0.77;;;;;;;;;;4979024;28;20206;-63
2023/10/24 11:37:43;;;;;;;3.23;0.87;;;;;;;;;;4986234;28;20256;-63
2023/10/24 11:40:13;;;;;;;0.80;0.80;;;;;;;;;;4980087;28;20269;-64
2023/10/24 11:42:41;;;;;;;2.97;1.03;;;;;;;;;;4979680;28;20213;-63
2023/10/24 11:45:09;;;;;;;2.00;0.87;;;;;;;;;;4980164;28;20213;-63
2023/10/24 11:47:37;;;;;;;0.90;0.90;;;;;;;;;;4979350;28;20233;-63
2023/10/24 11:50:09;;;;;;;1.00;0.90;;;;;;;;;;4978148;28;20208;-64
2023/10/24 11:52:37;;;;;;;1.33;0.80;;;;;;;;;;4974027;28;20216;-63
2023/10/24 11:55:06;;;;;;;1.33;1.17;;;;;;;;;;4980782;28;20212;-64
2023/10/24 11:57:35;;;;;;;0.87;0.83;;;;;;;;;;4980524;28;20226;-63
2023/10/24 12:00:13;;;;;;;1.33;1.07;;;;;;;;;;4980724;28;20205;-64
2023/10/24 12:02:41;;;;;;;3.47;1.20;;;;;;;;;;4976454;28;20212;-63
2023/10/24 12:05:09;;;;;;;1.70;1.30;;;;;;;;;;4979899;28;20209;-63
2023/10/24 12:07:37;;;;;;;1.20;1.10;;;;;;;;;;4980413;28;20324;-64
2023/10/24 12:10:09;;;;;;;2.10;1.40;;;;;;;;;;4980493;28;20210;-64
2023/10/24 12:12:42;;;;;;;1.17;1.07;;;;;;;;;;4980563;28;20260;-64
2023/10/24 12:15:10;;;;;;;2.20;1.17;;;;;;;;;;4980057;28;20264;-65
2023/10/24 12:17:44;;;;;;;2.00;1.00;;;;;;;;;;4980442;28;20233;-65
2023/10/24 12:20:12;;;;;;;2.67;1.00;;;;;;;;;;4980433;28;20216;-65
2023/10/24 12:22:43;;;;;;;1.87;1.43;;;;;;;;;;4985236;28;20206;-64
2023/10/24 12:25:11;;;;;;;4.23;1.50;;;;;;;;;;4980041;28;20619;-64
2023/10/24 12:27:40;;;;;;;1.53;1.37;;;;;;;;;;4980371;28;20229;-65
2023/10/24 12:30:09;;;;;;;1.23;1.13;;;;;;;;;;4979639;28;20241;-65
2023/10/24 12:32:37;;;;;;;1.00;1.00;;;;;;;;;;4979721;28;20741;-64
2023/10/24 12:35:06;;;;;;;1.50;1.40;;;;;;;;;;4979808;28;20272;-64
2023/10/24 12:37:34;;;;;;;1.60;1.50;;;;;;;;;;4985059;28;20225;-64
2023/10/24 12:40:04;;;;;;;1.13;1.03;;;;;;;;;;4979833;28;20209;-64
2023/10/24 12:42:32;;;;;;;2.80;1.20;;;;;;;;;;4979859;28;20621;-64
2023/10/24 12:45:05;;;;;;;0.50;0.50;;;;;;;;;;4979359;28;20668;-65
2023/10/24 12:47:34;;;;;;;1.37;0.80;;;;;;;;;;4979673;28;20782;-65
2023/10/24 12:50:23;;;;;;;2.07;1.20;;;;;;;;;;4979782;28;20213;-64
2023/10/24 12:52:54;;;;;;;1.30;1.20;;;;;;;;;;4984405;28;20230;-64
2023/10/24 12:55:24;;;;;;;1.97;0.70;;;;;;;;;;4978645;28;20244;-65
2023/10/24 12:58:10;;;;;;;0.80;0.80;;;;;;;;;;4979255;28;20229;-64
2023/10/24 13:00:40;;;;;;;1.30;1.00;;;;;;;;;;4979009;28;20202;-64
2023/10/24 13:03:07;;;;;;;0.77;0.77;;;;;;;;;;4979754;28;20237;-64
2023/10/24 13:05:45;;;;;;;0.80;0.80;;;;;;;;;;4979401;28;20216;-64
2023/10/24 13:08:13;;;;;;;0.80;0.77;;;;;;;;;;4977088;28;20225;-64
2023/10/24 13:10:41;;;;;;;1.27;0.90;;;;;;;;;;4976584;28;20362;-64
2023/10/24 13:13:09;;;;;;;0.90;0.90;;;;;;;;;;4971630;28;20213;-65
2023/10/24 13:18:30;;;;;;;1.23;0.80;;;;;;;;;;4976387;28;20229;-64
2023/10/24 13:20:58;;;;;;;0.60;0.60;;;;;;;;;;4978636;28;20206;-63
2023/10/24 13:23:27;;;;;;;0.93;0.80;;;;;;;;;;4980826;28;20197;-63
2023/10/24 13:25:55;;;;;;;2.47;1.07;;;;;;;;;;4972983;28;20265;-63
2023/10/24 13:28:25;;;;;;;1.03;0.93;;;;;;;;;;4973433;28;20549;-63
2023/10/24 13:30:54;;;;;;;0.77;0.77;;;;;;;;;;4977652;28;20241;-63
2023/10/24 13:33:42;;;;;;;0.70;0.70;;;;;;;;;;4978439;28;20301;-64
2023/10/24 13:36:30;;;;;;;1.40;1.30;;;;;;;;;;4978254;28;20216;-63
2023/10/24 13:38:58;;;;;;;1.20;0.90;;;;;;;;;;4988374;28;20229;-63
2023/10/24 13:41:26;;;;;;;1.93;1.60;;;;;;;;;;4978625;28;20212;-63
2023/10/24 13:47:26;;;;;;;1.40;1.10;;;;;;;;;;4977239;28;20294;-63
2023/10/24 13:49:54;;;;;;;1.10;1.00;;;;;;;;;;4978776;28;20210;-62
2023/10/24 13:52:22;;;;;;;1.30;1.03;;;;;;;;;;4978347;28;20226;-62
2023/10/24 13:54:50;;;;;;;2.47;0.80;;;;;;;;;;4978444;28;20213;-63
2023/10/24 13:57:18;;;;;;;0.60;0.60;;;;;;;;;;4978702;28;20209;-63
2023/10/24 13:59:52;;;;;;;0.57;0.57;;;;;;;;;;4978330;28;20233;-63
2023/10/24 14:02:34;;;;;;;0.50;0.50;;;;;;;;;;4977987;28;20560;-63
2023/10/24 14:05:05;;;;;;;1.10;1.10;;;;;;;;;;4977842;28;20297;-64
2023/10/24 14:07:33;;;;;;;1.00;0.93;;;;;;;;;;4978231;28;20229;-64
2023/10/24 14:10:01;;;;;;;0.43;0.43;;;;;;;;;;4978337;28;20214;-64
2023/10/24 14:12:29;;;;;;;0.50;0.50;;;;;;;;;;4978293;28;20279;-64
2023/10/24 14:14:57;;;;;;;0.70;0.70;;;;;;;;;;4969937;28;20278;-64
2023/10/24 14:17:25;;;;;;;0.70;0.70;;;;;;;;;;4978473;28;20257;-64
2023/10/24 14:19:55;;;;;;;2.63;1.50;;;;;;;;;;4976666;28;20222;-64
2023/10/24 14:22:23;;;;;;;1.43;1.17;;;;;;;;;;4981920;28;20525;-64
2023/10/24 14:24:52;;;;;;;1.50;0.70;;;;;;;;;;4977594;28;20569;-64
2023/10/24 14:27:20;;;;;;;1.27;1.17;;;;;;;;;;4978504;28;20669;-64
2023/10/24 14:33:16;;;;;;;1.30;1.10;;;;;;;;;;4977846;28;20757;-64
2023/10/24 14:35:45;;;;;;;0.70;0.70;;;;;;;;;;4976488;28;20205;-64
2023/10/24 14:38:15;;;;;;;5.00;2.87;;;;;;;;;;4981672;28;20221;-64
2023/10/24 14:40:44;;;;;;;1.47;1.33;;;;;;;;;;4977381;28;20201;-64
2023/10/24 14:43:12;;;;;;;1.37;1.27;;;;;;;;;;4976762;28;20198;-64
2023/10/24 14:49:01;;;;;;;0.50;0.50;;;;;;;;;;4979361;28;20217;-64
2023/10/24 14:51:31;;;;;;;0.33;0.33;;;;;;;;;;4981082;28;20240;-65
2023/10/24 14:53:59;;;;;;;0.47;0.47;;;;;;;;;;4980289;28;20205;-64
2023/10/24 14:56:27;;;;;;;0.60;0.60;;;;;;;;;;4981162;28;20673;-64
2023/10/24 14:58:55;;;;;;;0.50;0.50;;;;;;;;;;4979668;28;20225;-65
2023/10/24 15:01:23;;;;;;;0.57;0.50;;;;;;;;;;4981487;28;20244;-64
2023/10/24 15:03:51;;;;;;;1.30;0.50;;;;;;;;;;4981584;28;20220;-64
2023/10/24 15:06:20;;;;;;;1.27;0.70;;;;;;;;;;4980612;28;20222;-65
2023/10/24 15:08:49;;;;;;;1.27;0.50;;;;;;;;;;4981780;28;20312;-64
2023/10/24 15:11:18;;;;;;;1.80;0.50;;;;;;;;;;4980616;28;20240;-65
2023/10/24 15:17:11;;;;;;;3.57;2.00;;;;;;;;;;4981509;28;20269;-64
2023/10/24 15:19:39;;;;;;;0.77;0.77;;;;;;;;;;4981455;28;20209;-64
2023/10/24 15:25:32;;;;;;;1.20;1.00;;;;;;;;;;4982993;28;20243;-64
2023/10/24 15:28:00;;;;;;;0.60;0.60;;;;;;;;;;4986118;28;20232;-63
2023/10/24 15:34:03;;;;;;;0.87;0.87;;;;;;;;;;4980572;28;20676;-64
2023/10/24 15:36:32;;;;;;;1.93;1.07;;;;;;;;;;4980538;28;20241;-64